Millers Falls, Massachusetts
Current Conditions -  °F | °C
As of 3:52 PM on Saturday 25 Oct 2014 (Local Time) from KORE Reporting Station
Clear Clear  
Wind Chill: 61°   Ceiling: Unl
Heat Index: 61°   Visibility: 10mi
Dew Point: 44°   Wind: 9mph
Humidity: 54%   Direction: 280°W
Pressure: 29.61"   Gusts: 16mph
Location:  42.5736°N, 72.4889°W
Report Text: KORE 251952Z AUTO 28008G14KT 10SM CLR 16/07 A2961 RMK AO2 SLP030 T01610067
Loading
Personal Weather Stations






























Interactive Weather Map
Tropical Storm Tracking
New forecast layout! Learn more

10-Day Weather Forecast

Advertisements
Track Severe Weather on mobile